Gabes, Tunisia

1:00 AM CET on December 22, 2014 (GMT +0100)
Zarzis | Change Station
CLOSE
Current Station
Airport
Location: Djerba Mellita,
Elevation: 10 ft
Nearby Weather Stations

Elev 10 ft 33.88 °N, 10.78 °E | Updated 30 minutes ago

Scattered Clouds
Scattered Clouds
63 °F
Feels Like 63 °F
N
12
Wind Variable Wind from NNE

Today
High -- | Low -- °F
--% Chance of Precip.
Yesterday
High -- | Low -- °F
Precip. -- in
7:21 AM 5:15 PM
Waning Crescent, 0% visible
Pressure 30.42 in
Visibility 6.2 miles
Clouds Scattered Clouds 2600 ft
Dew Point 50 °F
Humidity 63%
Rainfall 0.00 in
Snow Depth Not available.
UV 0 out of 12
Pollen Not available.
Air Quality Not available.
Flu Activity Not available.
METAR DTTJ 212330Z 03010KT 9999 SCT026 17/10 Q1030 NOSIG

More Conditions Fewer Conditions

Pressure 30.42 in
Visibility 6.2 miles
Clouds Scattered Clouds 2600 ft
Dew Point 50 °F
Humidity 63%
Rainfall 0.00 in
Snow Depth Not available.
UV 0 out of 12
Pollen Not available.
Air Quality Not available.
Flu Activity Not available.
METAR DTTJ 212330Z 03010KT 9999 SCT026 17/10 Q1030 NOSIG

More Conditions Fewer Conditions

10-Day Weather Forecast

Almanac

Astronomy

Dec. 22, 2014 Rise Set
Actual Time
Civil Twilight
Nautical Twilight
Astronomical Twilight
Moon
Length of Visible Light
Length of Day
Tomorrow will be .
, % of the Moon is Illuminated

Today's Extremes

Country Highs Country Lows

Community

WunderPhotos

Upload Photos

1,779,509 photos uploaded!

WunderBlogs® & News

Nearby

Air Quality

  Air Quality AQ Index Pollutant
Not available.

Snow Depth

Station Depth Elevation

Earthquake Activity

City Distance Mag. Time & Date
Minimum magnitude displayed is 2.5.

Coastal Water Temperatures

Place Temperature

Nearby Weather Stations